Time;durP1;ratioP1;P1;durP2;ratioP2;P2;SDS_P1;SDS_P2;PMS_P1;PMS_P2;Temp;Humidity;BMP_temperature;BMP_pressure;BME280_temperature;BME280_humidity;BME280_pressure;Samples;Min_cycle;Max_cycle;Signal;HPM_P1;HPM_P2
2021/10/01 00:01:07;;;;;;;7.90;7.30;;;10.60;99.90;;;;;;5031450;28;20168;-66
2021/10/01 00:03:32;;;;;;;8.40;7.60;;;10.60;99.90;;;;;;5039151;28;20182;-66
2021/10/01 00:05:58;;;;;;;8.87;8.17;;;10.60;99.90;;;;;;5051471;28;20195;-66
2021/10/01 00:08:24;;;;;;;8.97;8.17;;;10.60;99.90;;;;;;5044398;28;20620;-65
2021/10/01 00:10:49;;;;;;;9.40;7.77;;;10.60;99.90;;;;;;5031244;28;20202;-66
2021/10/01 00:13:15;;;;;;;14.37;8.27;;;10.60;99.90;;;;;;5036127;28;20175;-65
2021/10/01 00:15:43;;;;;;;8.43;7.57;;;10.60;99.90;;;;;;5051439;28;20272;-65
2021/10/01 00:18:10;;;;;;;9.77;8.63;;;10.60;99.90;;;;;;5047775;28;20175;-64
2021/10/01 00:20:35;;;;;;;9.50;7.87;;;10.50;99.90;;;;;;5031183;28;20176;-65
2021/10/01 00:23:01;;;;;;;10.90;8.10;;;10.50;99.90;;;;;;5032895;28;20180;-66
2021/10/01 00:25:26;;;;;;;8.70;7.17;;;10.50;99.90;;;;;;5051583;28;20194;-66
2021/10/01 00:27:52;;;;;;;8.77;7.90;;;10.50;99.90;;;;;;5051290;28;20281;-66
2021/10/01 00:30:18;;;;;;;8.77;7.97;;;10.50;99.90;;;;;;5044017;28;20233;-65
2021/10/01 00:32:43;;;;;;;8.47;7.00;;;10.50;99.90;;;;;;5031452;28;20180;-65
2021/10/01 00:35:09;;;;;;;8.13;7.40;;;10.40;99.90;;;;;;5048842;28;20206;-66
2021/10/01 00:37:35;;;;;;;8.83;8.10;;;10.40;99.90;;;;;;5051368;28;20198;-66
2021/10/01 00:40:00;;;;;;;9.47;7.80;;;10.30;99.90;;;;;;5034804;28;20184;-65
2021/10/01 00:42:26;;;;;;;9.97;9.00;;;10.30;99.90;;;;;;5031151;28;20179;-66
2021/10/01 00:44:54;;;;;;;10.30;9.27;;;10.20;99.90;;;;;;5044902;28;20183;-66
2021/10/01 00:47:19;;;;;;;9.37;8.47;;;10.20;99.90;;;;;;5050969;28;20187;-66
2021/10/01 00:49:45;;;;;;;10.63;8.37;;;10.10;99.90;;;;;;5038278;28;20190;-66
2021/10/01 00:52:11;;;;;;;9.57;8.73;;;10.10;99.90;;;;;;5031216;28;20229;-66
2021/10/01 00:54:36;;;;;;;8.07;7.47;;;10.00;99.90;;;;;;5041487;28;20733;-65
2021/10/01 00:57:02;;;;;;;9.60;8.80;;;9.90;99.90;;;;;;5050996;28;20201;-66
2021/10/01 00:59:28;;;;;;;8.13;7.40;;;9.90;99.90;;;;;;5045694;28;20340;-66
2021/10/01 01:01:54;;;;;;;11.43;8.20;;;9.90;99.90;;;;;;5051081;28;20248;-66
2021/10/01 01:04:20;;;;;;;8.20;7.50;;;9.90;99.90;;;;;;5048549;28;20171;-66
2021/10/01 01:07:00;;;;;;;8.00;7.30;;;9.90;99.90;;;;;;5051057;28;20198;-65
2021/10/01 01:09:37;;;;;;;8.00;7.30;;;9.90;99.90;;;;;;5038810;28;20230;-66
2021/10/01 01:12:31;;;;;;;9.03;7.40;;;9.80;99.90;;;;;;5030964;28;20175;-66
2021/10/01 01:15:07;;;;;;;8.20;7.40;;;9.80;99.90;;;;;;5045960;28;20934;-66
2021/10/01 01:17:50;;;;;;;8.70;7.90;;;9.80;99.90;;;;;;5050926;28;20181;-66
2021/10/01 01:20:34;;;;;;;8.87;8.00;;;9.70;99.90;;;;;;5033106;28;20187;-66
2021/10/01 01:23:27;;;;;;;9.00;8.10;;;9.70;99.90;;;;;;5030880;28;20519;-66
2021/10/01 01:26:30;;;;;;;8.50;7.80;;;9.70;99.90;;;;;;5032044;28;20206;-65
2021/10/01 01:29:15;;;;;;;8.63;7.73;;;9.70;99.90;;;;;;5034231;28;20277;-65
2021/10/01 01:32:26;;;;;;;8.13;7.47;;;9.60;99.90;;;;;;5037840;28;20783;-66
2021/10/01 01:35:06;;;;;;;9.23;8.00;;;9.60;99.90;;;;;;5050933;28;20255;-66
2021/10/01 01:37:44;;;;;;;7.97;7.37;;;9.50;99.90;;;;;;5044192;28;20175;-66
2021/10/01 01:40:12;;;;;;;8.07;7.40;;;9.50;99.90;;;;;;5034055;28;20183;-65
2021/10/01 01:42:41;;;;;;;8.30;7.60;;;9.50;99.90;;;;;;5044071;28;20170;-66
2021/10/01 01:45:08;;;;;;;7.57;6.97;;;9.50;99.90;;;;;;5047668;28;20652;-66
2021/10/01 01:47:34;;;;;;;11.43;7.60;;;9.50;99.90;;;;;;5034075;28;20218;-65
2021/10/01 01:50:02;;;;;;;9.00;7.80;;;9.50;99.90;;;;;;5038245;28;20186;-66
2021/10/01 01:52:29;;;;;;;8.43;7.40;;;9.40;99.90;;;;;;5054016;28;20171;-65
2021/10/01 01:54:56;;;;;;;8.40;7.80;;;9.40;99.90;;;;;;5049915;28;20180;-65
2021/10/01 01:57:25;;;;;;;7.80;7.20;;;9.40;99.90;;;;;;5033869;28;20282;-66
2021/10/01 01:59:51;;;;;;;7.77;7.27;;;9.50;99.90;;;;;;5035931;28;20222;-66
2021/10/01 02:02:19;;;;;;;8.00;7.17;;;9.40;99.90;;;;;;5053077;28;20167;-65
2021/10/01 02:04:45;;;;;;;8.50;7.10;;;9.40;99.90;;;;;;5052298;28;20213;-66
2021/10/01 02:07:13;;;;;;;7.87;7.07;;;9.40;99.90;;;;;;5032366;28;20805;-66
2021/10/01 02:09:38;;;;;;;8.00;7.50;;;9.40;99.90;;;;;;5032136;28;20207;-65
2021/10/01 02:12:05;;;;;;;7.63;7.13;;;9.40;99.90;;;;;;5033898;28;20194;-65
2021/10/01 02:14:35;;;;;;;7.70;7.00;;;9.40;99.90;;;;;;5033844;28;20582;-64
2021/10/01 02:17:01;;;;;;;9.13;8.03;;;9.30;99.90;;;;;;5045853;28;20198;-65
2021/10/01 02:19:31;;;;;;;9.03;7.40;;;9.30;99.90;;;;;;5033328;28;20218;-65
2021/10/01 02:21:58;;;;;;;9.17;8.20;;;9.30;99.90;;;;;;5050399;28;20187;-66
2021/10/01 02:24:28;;;;;;;9.00;8.37;;;9.30;99.90;;;;;;5040098;28;20629;-66
2021/10/01 02:27:10;;;;;;;8.00;7.33;;;9.20;99.90;;;;;;5033225;28;20202;-65
2021/10/01 02:29:48;;;;;;;8.10;7.33;;;9.20;99.90;;;;;;5047155;28;20210;-66
2021/10/01 02:32:20;;;;;;;8.27;7.57;;;9.20;99.90;;;;;;5053156;28;20628;-66
2021/10/01 02:34:46;;;;;;;8.20;7.57;;;9.20;99.90;;;;;;5037908;28;20227;-65
2021/10/01 02:37:13;;;;;;;9.27;7.70;;;9.10;99.90;;;;;;5032116;28;20199;-66
2021/10/01 02:39:42;;;;;;;9.10;7.27;;;9.10;99.90;;;;;;5046107;28;20629;-65
2021/10/01 02:42:09;;;;;;;8.30;7.40;;;9.10;99.90;;;;;;5052965;28;20171;-65
2021/10/01 02:44:35;;;;;;;11.97;7.63;;;9.10;99.90;;;;;;5041222;28;20266;-65
2021/10/01 02:47:01;;;;;;;8.57;7.80;;;9.10;99.90;;;;;;5033072;28;20290;-66
2021/10/01 02:49:28;;;;;;;9.33;8.17;;;9.10;99.90;;;;;;5042521;28;20724;-66
2021/10/01 02:51:59;;;;;;;12.07;9.87;;;9.10;99.90;;;;;;5046005;28;20172;-65
2021/10/01 02:54:54;;;;;;;8.47;7.67;;;9.10;99.90;;;;;;5033007;28;20218;-66
2021/10/01 02:57:22;;;;;;;12.93;8.50;;;9.10;99.90;;;;;;5042093;28;20233;-65
2021/10/01 02:59:49;;;;;;;8.80;7.83;;;9.10;99.90;;;;;;5052500;28;20171;-65
2021/10/01 03:02:19;;;;;;;8.40;7.67;;;9.10;99.90;;;;;;5043523;28;20548;-65
2021/10/01 03:04:48;;;;;;;8.27;7.30;;;9.10;99.90;;;;;;5032729;28;20203;-66
2021/10/01 03:07:16;;;;;;;7.60;7.10;;;9.20;99.90;;;;;;5039932;28;20197;-65
2021/10/01 03:09:42;;;;;;;7.47;6.97;;;9.20;99.90;;;;;;5052189;28;20191;-66
2021/10/01 03:12:09;;;;;;;8.50;7.53;;;9.20;99.90;;;;;;5046069;28;20642;-66
2021/10/01 03:14:35;;;;;;;9.20;8.37;;;9.20;99.90;;;;;;5032436;28;20314;-66
2021/10/01 03:17:03;;;;;;;8.77;7.93;;;9.20;99.90;;;;;;5036865;28;20293;-66
2021/10/01 03:19:30;;;;;;;11.10;8.20;;;9.30;99.90;;;;;;5051312;28;20167;-66
2021/10/01 03:21:58;;;;;;;8.60;7.80;;;9.20;99.90;;;;;;5032286;28;20168;-66
2021/10/01 03:24:24;;;;;;;7.70;7.17;;;9.30;99.90;;;;;;5032335;28;20546;-66
2021/10/01 03:26:51;;;;;;;8.20;7.40;;;9.30;99.90;;;;;;5051017;28;20293;-66
2021/10/01 03:29:18;;;;;;;9.80;7.60;;;9.30;99.90;;;;;;5051828;28;20209;-65
2021/10/01 03:31:46;;;;;;;8.77;7.93;;;9.40;99.90;;;;;;5034154;28;20180;-64
2021/10/01 03:34:13;;;;;;;9.00;8.20;;;9.40;99.90;;;;;;5032068;28;20171;-65
2021/10/01 03:36:40;;;;;;;8.90;7.70;;;9.50;99.90;;;;;;5042046;28;20245;-66
2021/10/01 03:39:05;;;;;;;8.27;7.50;;;9.60;99.90;;;;;;5031689;28;20172;-65
2021/10/01 03:41:31;;;;;;;8.20;7.40;;;9.60;99.90;;;;;;5033131;28;20726;-66
2021/10/01 03:43:57;;;;;;;8.03;7.50;;;9.60;99.90;;;;;;5033051;28;20175;-65
2021/10/01 03:46:23;;;;;;;8.67;7.93;;;9.70;99.90;;;;;;5032109;28;20555;-66
2021/10/01 03:48:49;;;;;;;9.40;8.43;;;9.70;99.90;;;;;;5049717;23;20226;-63
2021/10/01 03:51:15;;;;;;;8.60;7.17;;;9.70;99.90;;;;;;5033791;28;20205;-64
2021/10/01 03:53:42;;;;;;;8.27;7.50;;;9.70;99.90;;;;;;5051809;28;20595;-64
2021/10/01 03:56:16;;;;;;;7.93;7.40;;;9.70;99.90;;;;;;5051620;28;20167;-64
2021/10/01 03:58:48;;;;;;;8.37;7.57;;;9.60;99.90;;;;;;5051422;28;20234;-63
2021/10/01 04:01:14;;;;;;;7.77;7.27;;;9.60;99.90;;;;;;5051261;28;20206;-64
2021/10/01 04:03:41;;;;;;;8.57;7.70;;;9.60;99.90;;;;;;5050693;28;20186;-64
2021/10/01 04:06:06;;;;;;;8.03;7.27;;;9.50;99.90;;;;;;5051586;28;20208;-63
2021/10/01 04:08:32;;;;;;;7.80;7.13;;;9.50;99.90;;;;;;5051232;28;20285;-63
2021/10/01 04:10:58;;;;;;;7.70;7.10;;;9.50;99.90;;;;;;5050997;28;20225;-63
2021/10/01 04:13:24;;;;;;;7.80;7.10;;;9.40;99.90;;;;;;5051383;28;20185;-64
2021/10/01 04:15:49;;;;;;;7.87;7.00;;;9.40;99.90;;;;;;5051385;28;20171;-64
2021/10/01 04:18:15;;;;;;;7.93;7.20;;;9.40;99.90;;;;;;5051261;28;20671;-64
2021/10/01 04:20:43;;;;;;;8.27;7.47;;;9.40;99.90;;;;;;5050942;28;20577;-64
2021/10/01 04:23:09;;;;;;;8.83;8.03;;;9.40;99.90;;;;;;5051190;28;20652;-63
2021/10/01 04:25:34;;;;;;;8.17;7.67;;;9.40;99.90;;;;;;5051196;28;20185;-64
2021/10/01 04:28:00;;;;;;;8.20;7.60;;;9.40;99.90;;;;;;5051104;28;20206;-64
2021/10/01 04:30:26;;;;;;;9.00;8.30;;;9.40;99.90;;;;;;5050816;28;20266;-64
2021/10/01 04:33:01;;;;;;;8.50;7.93;;;9.40;99.90;;;;;;5051093;28;20162;-64
2021/10/01 04:35:27;;;;;;;8.83;8.03;;;9.40;99.90;;;;;;5051117;28;20643;-64
2021/10/01 04:37:53;;;;;;;8.83;7.87;;;9.40;99.90;;;;;;5051131;28;20201;-64
2021/10/01 04:40:18;;;;;;;8.67;8.07;;;9.40;99.90;;;;;;5050637;28;20174;-64
2021/10/01 04:42:44;;;;;;;10.20;8.50;;;9.50;99.90;;;;;;5051091;28;20224;-64
2021/10/01 04:45:10;;;;;;;8.17;7.40;;;9.50;99.90;;;;;;5050794;28;20667;-63
2021/10/01 04:47:37;;;;;;;8.77;7.97;;;9.50;99.90;;;;;;5050889;28;20206;-63
2021/10/01 04:50:04;;;;;;;8.77;7.87;;;9.50;99.90;;;;;;5050680;28;20524;-64
2021/10/01 04:52:30;;;;;;;8.47;7.60;;;9.50;99.90;;;;;;5051108;28;20175;-63
2021/10/01 04:54:56;;;;;;;12.37;8.53;;;9.50;99.90;;;;;;5050693;28;20316;-64
2021/10/01 04:57:21;;;;;;;8.60;7.77;;;9.50;99.90;;;;;;5033238;28;20671;-64
2021/10/01 04:59:47;;;;;;;10.27;7.97;;;9.50;99.90;;;;;;5050487;28;20202;-63
2021/10/01 05:02:13;;;;;;;9.77;8.60;;;9.50;99.90;;;;;;5054550;28;20181;-64
2021/10/01 05:04:38;;;;;;;8.87;7.87;;;9.50;99.90;;;;;;5054741;28;20257;-64
2021/10/01 05:07:04;;;;;;;8.47;7.73;;;9.50;99.90;;;;;;5054575;28;20167;-64
2021/10/01 05:09:30;;;;;;;8.87;7.93;;;9.40;99.90;;;;;;5054359;28;20241;-63
2021/10/01 05:11:55;;;;;;;8.13;7.43;;;9.40;99.90;;;;;;5054511;28;20175;-64
2021/10/01 05:14:21;;;;;;;9.07;8.37;;;9.30;99.90;;;;;;5054535;28;20225;-63
2021/10/01 05:16:46;;;;;;;13.73;9.47;;;9.30;99.90;;;;;;5054618;28;20233;-63
2021/10/01 05:19:12;;;;;;;9.50;8.67;;;9.30;99.90;;;;;;5054229;28;20210;-64
2021/10/01 05:21:38;;;;;;;9.40;8.33;;;9.30;99.90;;;;;;5054446;28;20175;-65
2021/10/01 05:24:03;;;;;;;10.03;7.90;;;9.20;99.90;;;;;;5054554;28;20178;-64
2021/10/01 05:26:29;;;;;;;8.00;7.40;;;9.20;99.90;;;;;;5054317;28;20194;-64
2021/10/01 05:28:56;;;;;;;11.20;8.57;;;9.20;99.90;;;;;;5054013;28;20202;-62
2021/10/01 05:31:22;;;;;;;11.13;8.57;;;9.20;99.90;;;;;;5053895;28;20640;-64
2021/10/01 05:33:48;;;;;;;17.10;8.97;;;9.20;99.90;;;;;;5054233;28;20177;-64
2021/10/01 05:36:15;;;;;;;9.70;8.90;;;9.20;99.90;;;;;;5054298;28;20182;-63
2021/10/01 05:38:41;;;;;;;10.17;9.10;;;9.10;99.90;;;;;;5053738;28;20209;-64
2021/10/01 05:41:06;;;;;;;10.47;9.27;;;9.20;99.90;;;;;;5053656;28;20175;-64
2021/10/01 05:43:32;;;;;;;9.33;8.40;;;9.20;99.90;;;;;;5054033;28;20750;-63
2021/10/01 05:45:59;;;;;;;8.77;8.03;;;9.20;99.90;;;;;;5053762;28;20252;-63
2021/10/01 05:48:27;;;;;;;10.43;8.00;;;9.20;99.90;;;;;;5053876;28;20711;-63
2021/10/01 05:50:57;;;;;;;8.70;7.87;;;9.20;99.90;;;;;;5053395;28;20178;-63
2021/10/01 05:56:11;;;;;;;10.73;9.73;;;9.30;99.90;;;;;;5011032;28;20270;-63
2021/10/01 05:58:37;;;;;;;10.20;8.43;;;9.30;99.90;;;;;;5053754;28;20217;-63
2021/10/01 06:01:04;;;;;;;10.37;9.30;;;9.30;99.90;;;;;;5052500;28;20189;-63
2021/10/01 06:03:30;;;;;;;9.97;8.23;;;9.30;99.90;;;;;;5053779;28;20193;-63
2021/10/01 06:05:55;;;;;;;10.63;7.97;;;9.40;99.90;;;;;;5051865;28;20183;-64
2021/10/01 06:08:21;;;;;;;9.50;8.20;;;9.40;99.90;;;;;;5053539;28;20206;-60
2021/10/01 06:10:47;;;;;;;8.10;7.40;;;9.40;99.90;;;;;;5040040;28;20219;-63
2021/10/01 06:13:13;;;;;;;19.03;10.27;;;9.50;99.90;;;;;;5033256;28;20712;-64
2021/10/01 06:15:38;;;;;;;10.23;8.50;;;9.50;99.90;;;;;;5044563;28;20341;-64
2021/10/01 06:18:04;;;;;;;8.27;7.57;;;9.60;99.90;;;;;;5053178;28;20234;-61
2021/10/01 06:20:30;;;;;;;9.27;8.10;;;9.70;99.90;;;;;;5043538;28;20266;-61
2021/10/01 06:22:55;;;;;;;8.87;7.67;;;9.70;99.90;;;;;;5033112;28;20224;-63
2021/10/01 06:25:22;;;;;;;9.93;7.77;;;9.80;99.90;;;;;;5040676;28;20186;-63
2021/10/01 06:27:49;;;;;;;7.40;6.63;;;9.80;99.90;;;;;;5053342;28;20194;-61
2021/10/01 06:30:15;;;;;;;7.73;7.03;;;9.90;99.90;;;;;;5046364;28;20167;-62
2021/10/01 06:32:41;;;;;;;8.07;7.47;;;10.00;99.90;;;;;;5034589;28;20176;-61
2021/10/01 06:35:08;;;;;;;7.63;6.93;;;10.10;99.90;;;;;;5052991;28;20190;-63
2021/10/01 06:37:34;;;;;;;7.60;7.00;;;10.20;99.90;;;;;;5052743;28;20193;-62
2021/10/01 06:40:00;;;;;;;7.80;7.10;;;10.20;99.90;;;;;;5032884;28;20641;-61
2021/10/01 06:42:26;;;;;;;9.33;7.63;;;10.30;99.90;;;;;;5033277;28;20309;-63
2021/10/01 06:44:54;;;;;;;7.60;6.90;;;10.40;99.90;;;;;;5051685;28;20182;-63
2021/10/01 06:47:28;;;;;;;7.80;6.30;;;10.70;99.90;;;;;;5053042;28;20697;-64
2021/10/01 08:19:49;;;;;;;6.13;5.40;;;16.80;99.90;;;;;;5039198;28;20209;-66
2021/10/01 08:22:15;;;;;;;7.03;5.13;;;16.90;99.90;;;;;;5033453;28;20171;-66
2021/10/01 08:24:41;;;;;;;6.07;5.10;;;17.00;99.90;;;;;;5050972;28;20524;-66
2021/10/01 08:27:07;;;;;;;8.33;5.80;;;17.40;99.90;;;;;;5050621;28;20563;-65
2021/10/01 08:29:33;;;;;;;9.10;5.53;;;17.30;99.90;;;;;;5050681;28;20202;-66
2021/10/01 08:32:04;;;;;;;7.60;5.07;;;17.10;99.90;;;;;;5050643;28;20181;-66
2021/10/01 08:34:33;;;;;;;6.67;5.43;;;16.90;99.90;;;;;;5048539;28;20170;-66
2021/10/01 08:37:00;;;;;;;6.00;5.50;;;16.90;99.90;;;;;;5053867;28;20671;-65
2021/10/01 08:39:26;;;;;;;8.90;4.97;;;17.00;99.90;;;;;;5054803;28;20194;-66
2021/10/01 08:41:51;;;;;;;5.73;5.00;;;17.00;99.90;;;;;;5055377;28;20174;-67
2021/10/01 08:44:18;;;;;;;5.93;5.40;;;17.00;99.90;;;;;;5051218;28;20182;-65
2021/10/01 08:46:46;;;;;;;6.97;5.33;;;17.00;99.90;;;;;;5035395;28;20545;-67
2021/10/01 08:49:12;;;;;;;5.83;5.33;;;16.90;99.90;;;;;;5042475;28;20248;-65
2021/10/01 08:51:38;;;;;;;5.60;5.03;;;17.10;99.90;;;;;;5055236;28;20171;-65
2021/10/01 08:54:05;;;;;;;5.83;5.27;;;17.20;99.90;;;;;;5048231;28;20182;-65
2021/10/01 08:56:30;;;;;;;6.40;5.30;;;17.30;99.90;;;;;;5035688;28;20210;-66
2021/10/01 08:58:56;;;;;;;5.77;5.10;;;17.60;99.90;;;;;;5047175;28;20234;-65
2021/10/01 09:01:22;;;;;;;5.57;5.10;;;17.70;99.90;;;;;;5045161;28;20191;-65
2021/10/01 09:03:48;;;;;;;5.67;5.17;;;17.80;99.90;;;;;;5038774;28;20187;-66
2021/10/01 09:06:15;;;;;;;6.33;5.03;;;17.90;99.90;;;;;;5043781;28;20182;-65
2021/10/01 09:08:52;;;;;;;5.70;4.93;;;18.20;99.90;;;;;;5054691;28;20207;-65
2021/10/01 09:11:24;;;;;;;6.33;5.73;;;18.60;99.90;;;;;;5053607;28;20596;-65
2021/10/01 09:13:50;;;;;;;5.70;4.80;;;19.00;99.90;;;;;;5054675;28;20190;-65
2021/10/01 09:16:15;;;;;;;5.30;5.00;;;19.00;99.90;;;;;;5054465;28;20163;-66
2021/10/01 09:18:42;;;;;;;5.20;4.77;;;19.20;99.90;;;;;;5054088;28;20204;-66
2021/10/01 09:21:27;;;;;;;6.60;4.63;;;19.40;99.90;;;;;;5035864;28;20178;-65
2021/10/01 09:24:05;;;;;;;7.60;4.73;;;19.50;99.90;;;;;;5054232;28;20175;-65
2021/10/01 09:26:33;;;;;;;6.07;4.80;;;19.40;99.90;;;;;;5054498;28;20174;-66
2021/10/01 09:29:07;;;;;;;6.13;4.93;;;19.50;99.90;;;;;;5053556;28;20341;-65
2021/10/01 09:31:40;;;;;;;6.67;5.40;;;19.70;99.90;;;;;;5054213;28;20167;-65
2021/10/01 09:34:31;;;;;;;6.70;5.17;;;20.00;99.90;;;;;;5053782;28;20183;-64
2021/10/01 09:37:04;;;;;;;5.32;4.63;;;20.10;99.90;;;;;;5048304;28;20664;-65
2021/10/01 09:39:32;;;;;;;5.17;4.77;;;20.20;99.90;;;;;;5044502;28;20209;-65
2021/10/01 09:41:59;;;;;;;5.38;4.88;;;20.40;99.90;;;;;;5053946;28;20197;-65
2021/10/01 09:44:30;;;;;;;5.20;4.67;;;20.50;99.90;;;;;;5053793;28;20182;-66
2021/10/01 09:46:56;;;;;;;4.53;4.22;;;20.50;99.90;;;;;;5053066;28;20190;-67
2021/10/01 09:49:32;;;;;;;4.82;4.35;;;20.30;99.90;;;;;;5077027;23;20227;-63
2021/10/01 09:51:57;;;;;;;4.50;4.20;;;20.40;99.90;;;;;;5044238;28;20174;-66
2021/10/01 09:54:24;;;;;;;5.00;4.70;;;20.50;99.90;;;;;;5043971;28;20562;-66
2021/10/01 09:56:51;;;;;;;12.07;4.90;;;20.30;99.90;;;;;;5042097;28;20179;-66
2021/10/01 09:59:16;;;;;;;5.73;5.20;;;20.00;99.90;;;;;;5053206;28;20197;-65
2021/10/01 10:02:11;;;;;;;5.00;4.60;;;20.20;99.90;;;;;;5048936;28;20179;-66
2021/10/01 10:04:41;;;;;;;5.47;5.07;;;20.60;99.90;;;;;;5033649;28;20548;-66
2021/10/01 10:07:09;;;;;;;6.55;5.07;;;20.60;99.90;;;;;;5045646;28;20180;-63
2021/10/01 10:09:37;;;;;;;6.03;5.53;;;20.50;99.90;;;;;;5034571;28;20858;-66
2021/10/01 10:12:03;;;;;;;6.60;4.72;;;20.40;99.90;;;;;;5047726;28;20275;-65
2021/10/01 10:14:41;;;;;;;5.87;5.33;;;20.40;99.90;;;;;;5053686;28;20180;-65
2021/10/01 10:17:15;;;;;;;5.55;4.93;;;20.40;99.90;;;;;;5039023;28;20185;-66
2021/10/01 10:19:41;;;;;;;6.00;5.60;;;20.40;99.90;;;;;;5033219;28;20199;-65
2021/10/01 10:22:06;;;;;;;5.20;4.90;;;20.50;99.90;;;;;;5046737;28;20551;-66
2021/10/01 10:24:32;;;;;;;5.33;4.93;;;20.50;99.90;;;;;;5052633;28;20178;-66
2021/10/01 10:26:58;;;;;;;5.03;4.75;;;20.50;99.90;;;;;;5033430;28;20184;-65
2021/10/01 10:29:25;;;;;;;6.35;5.82;;;20.50;99.90;;;;;;5033046;28;20586;-66
2021/10/01 10:31:51;;;;;;;6.70;4.63;;;20.70;99.90;;;;;;5051411;28;20652;-66
2021/10/01 10:34:29;;;;;;;5.60;5.20;;;20.80;99.90;;;;;;5047489;28;20195;-66
2021/10/01 10:37:06;;;;;;;5.90;5.40;;;20.90;99.90;;;;;;5033325;28;20164;-66
2021/10/01 10:39:33;;;;;;;7.63;6.40;;;20.80;99.90;;;;;;5043653;28;20731;-66
2021/10/01 10:42:02;;;;;;;5.33;4.77;;;20.40;99.90;;;;;;5053108;28;20179;-65
2021/10/01 10:44:50;;;;;;;6.43;5.83;;;20.10;99.90;;;;;;5045386;28;20206;-67
2021/10/01 10:47:46;;;;;;;5.83;5.33;;;20.30;99.90;;;;;;5042450;28;20178;-66
2021/10/01 10:50:21;;;;;;;5.30;4.90;;;20.80;99.90;;;;;;5039533;28;20219;-64
2021/10/01 10:53:09;;;;;;;6.10;4.90;;;21.10;99.90;;;;;;5052886;28;20174;-65
2021/10/01 10:55:42;;;;;;;7.10;6.10;;;21.10;99.90;;;;;;5040438;28;20318;-66
2021/10/01 10:58:27;;;;;;;8.80;5.57;;;21.00;99.90;;;;;;5050517;28;20199;-66
2021/10/01 11:01:23;;;;;;;6.10;5.60;;;20.90;99.90;;;;;;5042298;28;20598;-66
2021/10/01 11:03:52;;;;;;;6.97;5.43;;;20.90;99.90;;;;;;5031101;28;20187;-65
2021/10/01 11:06:18;;;;;;;6.97;5.30;;;20.90;99.90;;;;;;5032875;28;20175;-66
2021/10/01 11:08:48;;;;;;;6.67;6.17;;;21.10;99.90;;;;;;5032764;28;20241;-67
2021/10/01 11:11:37;;;;;;;5.77;5.10;;;20.70;99.90;;;;;;5032078;28;20501;-66
2021/10/01 11:14:15;;;;;;;6.00;5.10;;;20.80;99.90;;;;;;5021376;28;20188;-66
2021/10/01 11:16:53;;;;;;;6.67;5.53;;;20.80;99.90;;;;;;5032523;28;20171;-66
2021/10/01 11:19:37;;;;;;;7.27;4.90;;;20.80;99.90;;;;;;5032226;28;20203;-66
2021/10/01 11:22:24;;;;;;;6.43;5.93;;;20.80;99.90;;;;;;5032458;28;20510;-66
2021/10/01 11:25:03;;;;;;;8.30;5.67;;;20.80;99.90;;;;;;5032351;28;20258;-66
2021/10/01 11:27:30;;;;;;;5.30;4.80;;;20.90;99.90;;;;;;5032291;28;20209;-65
2021/10/01 11:29:56;;;;;;;6.03;4.87;;;21.00;99.90;;;;;;5031513;28;20211;-67
2021/10/01 11:32:24;;;;;;;6.67;5.67;;;21.00;99.90;;;;;;5032098;28;20178;-66
2021/10/01 11:34:59;;;;;;;5.93;5.33;;;20.60;99.90;;;;;;5032040;28;20630;-65
2021/10/01 11:37:41;;;;;;;6.03;5.43;;;20.70;99.90;;;;;;5032012;28;20171;-66
2021/10/01 11:40:11;;;;;;;6.75;5.63;;;21.00;99.90;;;;;;5031608;28;20204;-64
2021/10/01 11:42:39;;;;;;;6.47;5.55;;;21.20;99.90;;;;;;5031900;28;20171;-65
2021/10/01 11:45:16;;;;;;;5.68;5.10;;;21.40;99.90;;;;;;5031690;28;20175;-66
2021/10/01 11:48:04;;;;;;;9.47;5.37;;;21.30;99.90;;;;;;5032057;28;20175;-65
2021/10/01 11:50:31;;;;;;;5.70;5.17;;;21.10;99.90;;;;;;5031932;28;20172;-65
2021/10/01 11:52:58;;;;;;;6.47;5.10;;;21.00;99.90;;;;;;5031672;28;20164;-65
2021/10/01 11:55:29;;;;;;;9.20;5.50;;;21.00;99.90;;;;;;5031524;28;20172;-66
2021/10/01 11:57:57;;;;;;;6.37;5.47;;;21.20;99.90;;;;;;5031429;28;20176;-65
2021/10/01 12:00:23;;;;;;;8.53;5.03;;;21.30;99.90;;;;;;5031533;28;20198;-65
2021/10/01 12:02:50;;;;;;;7.90;5.03;;;21.30;99.90;;;;;;5031593;28;20576;-64
2021/10/01 12:05:22;;;;;;;6.73;5.03;;;21.40;99.90;;;;;;5031438;28;20246;-65
2021/10/01 12:07:50;;;;;;;7.00;5.13;;;21.60;99.90;;;;;;5031436;28;20163;-64
2021/10/01 12:10:17;;;;;;;7.87;5.00;;;21.60;99.90;;;;;;5031043;28;20175;-65
2021/10/01 12:13:10;;;;;;;7.83;5.00;;;21.40;99.90;;;;;;5031391;28;20255;-64
2021/10/01 12:15:48;;;;;;;6.35;5.65;;;21.50;99.90;;;;;;5031400;28;20699;-65
2021/10/01 12:18:54;;;;;;;6.07;5.13;;;21.70;99.90;;;;;;5031396;28;20219;-66
2021/10/01 12:21:28;;;;;;;7.53;5.20;;;21.50;99.90;;;;;;5031235;28;20175;-66
2021/10/01 12:24:06;;;;;;;5.83;5.43;;;20.70;99.90;;;;;;5031385;28;20189;-66
2021/10/01 12:26:34;;;;;;;9.13;5.60;;;20.50;99.90;;;;;;5031438;28;20185;-66
2021/10/01 12:29:23;;;;;;;8.80;4.50;;;20.40;99.90;;;;;;5030788;28;20292;-66
2021/10/01 12:32:02;;;;;;;6.83;4.60;;;20.60;99.90;;;;;;5031288;28;20203;-65
2021/10/01 12:34:34;;;;;;;5.40;4.43;;;20.90;99.90;;;;;;5031369;28;20190;-66
2021/10/01 12:37:07;;;;;;;6.17;4.67;;;21.40;99.90;;;;;;5031385;28;20563;-65
2021/10/01 12:39:36;;;;;;;9.60;4.37;;;21.70;99.90;;;;;;5030874;28;20656;-66
2021/10/01 12:42:06;;;;;;;7.18;4.10;;;21.90;99.90;;;;;;5031120;28;20183;-65
2021/10/01 12:44:38;;;;;;;4.88;4.38;;;22.10;99.90;;;;;;5031277;28;20258;-66
2021/10/01 12:47:17;;;;;;;5.53;4.55;;;22.40;99.90;;;;;;5031023;28;20198;-65
2021/10/01 12:49:59;;;;;;;6.22;4.60;;;22.80;99.90;;;;;;5030820;28;20677;-66
2021/10/01 12:52:25;;;;;;;6.22;4.93;;;23.20;99.90;;;;;;5031244;28;20578;-65
2021/10/01 12:55:08;;;;;;;5.38;4.90;;;23.20;99.90;;;;;;5031123;28;20653;-65
2021/10/01 12:57:42;;;;;;;7.00;4.65;;;23.10;99.90;;;;;;5031152;28;20186;-65
2021/10/01 13:00:12;;;;;;;4.82;4.40;;;23.10;99.90;;;;;;5030487;28;20199;-64
2021/10/01 13:02:39;;;;;;;4.70;4.28;;;23.00;99.90;;;;;;5031185;28;20243;-66
2021/10/01 13:05:15;;;;;;;10.00;4.57;;;23.00;99.90;;;;;;5030917;28;20172;-66
2021/10/01 13:07:45;;;;;;;8.65;4.97;;;22.90;99.90;;;;;;5031118;28;20167;-66
2021/10/01 13:10:38;;;;;;;7.20;4.45;;;22.70;99.90;;;;;;5030706;28;20192;-66
2021/10/01 13:13:21;;;;;;;5.25;4.57;;;22.70;99.90;;;;;;5030486;28;20167;-66
2021/10/01 13:15:48;;;;;;;7.18;4.40;;;22.70;99.90;;;;;;5030869;28;20178;-66
2021/10/01 13:18:42;;;;;;;4.80;4.40;;;22.80;99.90;;;;;;5031035;28;20567;-65
2021/10/01 13:21:21;;;;;;;5.00;4.50;;;23.00;99.90;;;;;;5030040;28;20183;-65
2021/10/01 13:23:53;;;;;;;4.82;4.30;;;23.10;99.90;;;;;;5034724;28;20183;-65
2021/10/01 13:26:23;;;;;;;4.80;4.30;;;23.00;99.90;;;;;;5034416;28;20172;-65
2021/10/01 13:29:03;;;;;;;8.57;4.60;;;22.80;99.90;;;;;;5034282;28;20286;-65
2021/10/01 13:31:31;;;;;;;4.55;4.15;;;22.90;99.90;;;;;;5034260;28;20171;-64
2021/10/01 13:33:58;;;;;;;5.57;4.78;;;22.70;99.90;;;;;;5034299;28;20168;-65
2021/10/01 13:36:24;;;;;;;8.82;4.80;;;22.50;99.90;;;;;;5034370;28;20167;-66
2021/10/01 13:38:50;;;;;;;4.80;4.40;;;22.30;99.90;;;;;;5034128;28;20196;-65
2021/10/01 13:41:19;;;;;;;5.00;4.50;;;22.00;99.90;;;;;;5033919;28;20183;-67
2021/10/01 13:43:46;;;;;;;6.30;4.40;;;21.70;99.90;;;;;;5034304;28;20251;-65
2021/10/01 13:46:13;;;;;;;5.67;5.27;;;21.40;99.90;;;;;;5034236;28;20286;-66
2021/10/01 13:48:39;;;;;;;5.20;4.80;;;21.20;99.90;;;;;;5033984;28;20207;-65
2021/10/01 13:51:06;;;;;;;5.40;4.90;;;21.30;99.90;;;;;;5033708;28;20533;-65
2021/10/01 13:53:32;;;;;;;5.37;4.80;;;21.40;99.90;;;;;;5016364;28;20207;-66
2021/10/01 13:55:58;;;;;;;5.10;4.73;;;21.30;99.90;;;;;;5033835;28;20214;-66
2021/10/01 13:58:24;;;;;;;5.40;4.90;;;21.20;99.90;;;;;;5033961;28;20191;-65
2021/10/01 14:00:51;;;;;;;4.97;4.47;;;21.20;99.90;;;;;;5015995;28;20179;-66
2021/10/01 14:03:20;;;;;;;4.60;4.40;;;21.10;99.90;;;;;;5033559;28;20178;-66
2021/10/01 14:05:46;;;;;;;5.27;4.70;;;21.10;99.90;;;;;;5033831;28;20201;-66
2021/10/01 14:08:12;;;;;;;4.77;4.47;;;21.10;99.90;;;;;;5033445;28;20211;-66
2021/10/01 14:10:37;;;;;;;5.27;4.77;;;21.20;99.90;;;;;;5033378;28;20183;-65
2021/10/01 14:13:06;;;;;;;5.28;4.82;;;21.30;99.90;;;;;;5032637;28;20175;-66
2021/10/01 14:15:32;;;;;;;5.57;4.80;;;21.60;99.90;;;;;;5033485;28;20175;-66
2021/10/01 14:17:58;;;;;;;5.50;5.00;;;21.70;99.90;;;;;;5033263;28;20167;-66
2021/10/01 14:20:27;;;;;;;5.10;4.70;;;21.80;99.90;;;;;;5033163;28;20194;-66
2021/10/01 14:22:54;;;;;;;4.90;4.50;;;21.80;99.90;;;;;;5033350;28;20250;-66
2021/10/01 14:25:21;;;;;;;5.10;4.70;;;21.70;99.90;;;;;;5033459;28;20549;-66
2021/10/01 14:27:47;;;;;;;5.90;4.90;;;21.60;99.90;;;;;;5033291;28;20168;-66
2021/10/01 14:30:17;;;;;;;5.23;4.83;;;21.40;99.90;;;;;;5032852;28;20241;-66
2021/10/01 14:32:43;;;;;;;5.63;5.17;;;21.30;99.90;;;;;;5033340;28;20649;-66
2021/10/01 14:35:12;;;;;;;5.10;4.70;;;21.10;99.90;;;;;;5033010;28;20241;-66
2021/10/01 14:37:39;;;;;;;5.07;4.67;;;20.90;99.90;;;;;;5033247;28;20176;-66